• Join FlightAware (Why Join?)
  • Login
  • US Flag 
12:36AM EDT


 

Airport Tracker/Info


-or-


 

Live Flight TrackerFlight Track Log ✈ DAL6221 ✈ 23-Apr-2013 ✈ KBTV - KLGA

Flight Track Log - Related Links

Times and Time Zones

All times are in EDT time to prevent confusion due to time zone crossing. See the DAL6221 flight status page for this flight to view local times or setup timezone preferences in your user account.

Time Position Orientation Groundspeed Altitude Reporting Facility
EDT Latitude Longitude Course Direction KTS MPH feet Rate Location/Type
04:23PM 44.4072 -73.1258 196° South 215 247 4,400  Level Boston Center
04:24PM 44.3528 -73.1514 199° South 228 262 6,800 2,340 Climbing Boston Center
04:26PM 44.2399 -73.2028 191° South  Level FlightAware Approximate
04:26PM 44.2044 -73.2103 191° South 289 333 11,500  Level Boston Center
04:27PM 44.1189 -73.2469 197° South 318 366 14,100 2,280 Climbing Boston Center
04:28PM 44.0247 -73.2861 197° South 342 394 16,200 2,100 Climbing Boston Center
04:29PM 43.9409 -73.3503 196° South  Level FlightAware Approximate
04:29PM 43.9267 -73.3281 197° South 356 410 18,400  Level Boston Center
04:30PM 43.8306 -73.3667 196° South 366 421 20,200 1,740 Climbing Boston Center
04:31PM 43.7156 -73.4139 197° South 371 427 22,000 900 Climbing Boston Center
04:32PM 43.6150 -73.4553 197° South 383 441 22,000  Level Boston Center
04:33PM 43.5083 -73.4936 195° South 383 441 22,000  Level Boston Center
04:34PM 43.4100 -73.5375 198° South 383 441 22,000  Level Boston Center
04:35PM 43.3097 -73.5756 195° South 383 441 22,000  Level Boston Center
04:36PM 43.2072 -73.6194 197° South 383 441 22,000  Level Boston Center
04:37PM 43.1150 -73.6575 197° South 383 441 22,000  Level Boston Center
04:38PM 43.0103 -73.6978 196° South 388 447 22,000  Level Boston Center
04:39PM 42.9056 -73.7411 197° South 388 447 22,000 -60 Level Boston Center
04:40PM 42.8008 -73.7842 197° South 394 453 21,900 -120 Descending Boston Center
04:41PM 42.6925 -73.7961 185° South 394 453 21,800 -540 Descending Boston Center
04:42PM 42.5781 -73.7736 172° South 389 448 20,900 -960 Descending Boston Center
04:43PM 42.4742 -73.7517 171° South 384 442 19,900 -1,080 Descending Boston Center
04:44PM 42.3703 -73.7272 170° South 390 449 18,800 -960 Descending Boston Center
04:45PM 42.2683 -73.7083 172° South 384 442 18,000 -420 Descending Boston Center
04:46PM 42.1642 -73.6864 171° South 384 442 18,000  Level Boston Center
04:47PM 42.0603 -73.6592 169° South 384 442 18,000 -120 Level Boston Center
04:48PM 41.9564 -73.6433 174° South 384 442 17,800 -660 Descending Boston Center
04:49PM 41.8522 -73.6331 176° South 384 442 16,700 -1,440 Descending Boston Center
04:50PM 41.7539 -73.6644 193° South 373 429 15,000 -1,620 Descending Boston Center
04:51PM 41.6536 -73.7014 195° South 373 429 13,600 -1,560 Descending Boston Center
04:52PM 41.5594 -73.7272 192° South 359 413 12,000 -1,560 Descending Boston Center
04:53PM 41.5333 -73.7333 190° South 337 388 11,500 -1,500 Descending New York TRACON
04:54PM 41.4500 -73.7667 197° South 306 352 10,000 -840 Descending New York TRACON
04:56PM 41.3000 -73.7500 175° South 293 337 9,000 -600 Descending New York TRACON
04:57PM 41.2333 -73.7000 151° Southeast 293 337 8,300 -900 Descending New York TRACON
04:58PM 41.1667 -73.6333 143° Southeast 273 314 7,300 -1,020 Descending New York TRACON
04:59PM 41.1000 -73.6167 169° South 275 316 6,300 -1,020 Descending New York TRACON
05:00PM 41.0333 -73.6667 210° Southwest 274 315 5,300 -1,020 Descending New York TRACON
05:01PM 40.9667 -73.7167 210° Southwest 258 297 4,300 -600 Descending New York TRACON
05:02PM 40.9167 -73.7833 225° Southwest 271 312 4,100 -180 Descending New York TRACON
05:03PM 40.9000 -73.8833 258° West 274 315 4,000 -60 Descending New York TRACON
05:04PM 40.8667 -73.9500 237° Southwest 269 310 4,000  Level New York TRACON
05:05PM 40.8000 -73.9833 201° Southwest 263 303 4,000  Level New York TRACON
05:06PM 40.7333 -74.0333 210° Southwest 222 255 4,000  Level New York TRACON
05:07PM 40.6833 -74.0667 207° Southwest 199 229 4,100 -540 Climbing New York TRACON
05:08PM 40.6333 -74.1000 207° Southwest 200 230 3,000 -660 Descending New York TRACON
05:09PM 40.5833 -74.0667 153° Southeast 188 216 2,800 -120 Descending New York TRACON
05:10PM 40.6167 -74.0167 49° Northeast 167 192 2,800  Level New York TRACON